Time;durP1;ratioP1;P1;durP2;ratioP2;P2;SDS_P1;SDS_P2;PMS_P1;PMS_P2;Temp;Humidity;BMP_temperature;BMP_pressure;BME280_temperature;BME280_humidity;BME280_pressure;Samples;Min_cycle;Max_cycle;Signal;HPM_P1;HPM_P2
2023/06/06 00:00:03;;;;;;;4.70;2.88;;;20.00;61.00;;;;;;4192938;28;20064;-60
2023/06/06 00:02:52;;;;;;;5.30;3.70;;;20.00;61.00;;;;;;4192882;28;20101;-60
2023/06/06 00:05:33;;;;;;;3.38;3.08;;;20.00;61.10;;;;;;4193027;28;20445;-59
2023/06/06 00:08:19;;;;;;;5.35;3.38;;;20.00;61.10;;;;;;4192747;28;20456;-60
2023/06/06 00:11:00;;;;;;;4.88;3.30;;;20.00;61.10;;;;;;4192974;28;20059;-59
2023/06/06 00:13:42;;;;;;;6.75;3.30;;;20.00;61.20;;;;;;4192728;28;20190;-61
2023/06/06 00:16:23;;;;;;;4.15;3.63;;;20.00;61.20;;;;;;4192878;28;20066;-62
2023/06/06 00:19:05;;;;;;;4.65;3.22;;;20.00;61.20;;;;;;4191614;28;20044;-62
2023/06/06 00:21:46;;;;;;;6.45;3.38;;;20.00;61.30;;;;;;4192821;28;20495;-61
2023/06/06 00:24:28;;;;;;;4.57;3.55;;;20.00;62.10;;;;;;4192345;28;20056;-62
2023/06/06 00:27:10;;;;;;;7.30;3.97;;;20.00;61.30;;;;;;4192316;28;20043;-62
2023/06/06 00:29:50;;;;;;;4.35;3.50;;;20.00;61.30;;;;;;4192472;28;20055;-62
2023/06/06 00:32:32;;;;;;;5.57;3.22;;;19.90;61.30;;;;;;4191177;28;20051;-61
2023/06/06 00:35:13;;;;;;;4.22;3.65;;;20.00;61.40;;;;;;4192477;28;20051;-61
2023/06/06 00:37:55;;;;;;;3.72;3.28;;;19.90;61.50;;;;;;4192405;28;20059;-62
2023/06/06 00:40:38;;;;;;;4.90;3.53;;;19.90;61.50;;;;;;4191269;28;20078;-61
2023/06/06 00:43:19;;;;;;;6.72;3.67;;;19.90;61.70;;;;;;4192433;28;20052;-62
2023/06/06 00:46:00;;;;;;;6.15;4.00;;;19.90;61.50;;;;;;4192596;28;20411;-60
2023/06/06 00:48:42;;;;;;;5.15;3.42;;;19.90;61.50;;;;;;4192433;28;20102;-61
2023/06/06 00:51:24;;;;;;;6.30;3.70;;;19.90;61.50;;;;;;4191212;28;20067;-60
2023/06/06 00:54:06;;;;;;;5.72;3.97;;;19.90;61.60;;;;;;4179511;28;20055;-61
2023/06/06 00:56:51;;;;;;;4.55;3.85;;;19.90;61.60;;;;;;4191220;28;20126;-61
2023/06/06 00:59:32;;;;;;;5.35;4.38;;;19.90;61.30;;;;;;4190941;28;20093;-61
2023/06/06 01:02:17;;;;;;;6.95;4.10;;;19.90;61.20;;;;;;4192097;28;20183;-61
2023/06/06 01:05:01;;;;;;;6.43;4.00;;;19.80;61.20;;;;;;4174569;28;20052;-60
2023/06/06 01:07:43;;;;;;;5.75;3.70;;;19.90;61.50;;;;;;4201129;28;20055;-61
2023/06/06 01:10:25;;;;;;;4.88;4.13;;;19.80;61.60;;;;;;4208719;28;20055;-60
2023/06/06 01:13:13;;;;;;;5.22;4.15;;;19.80;61.70;;;;;;4204332;28;20047;-61
2023/06/06 01:15:59;;;;;;;5.32;3.78;;;19.80;61.70;;;;;;4192190;28;20060;-61
2023/06/06 01:18:41;;;;;;;7.28;4.22;;;19.80;62.70;;;;;;4192358;28;20047;-61
2023/06/06 01:21:23;;;;;;;6.82;3.95;;;19.80;62.70;;;;;;4175732;28;20064;-61
2023/06/06 01:24:06;;;;;;;5.75;4.40;;;19.80;61.70;;;;;;4187922;28;20509;-61
2023/06/06 01:26:47;;;;;;;8.23;4.20;;;19.80;61.60;;;;;;4175345;28;20503;-61
2023/06/06 01:29:31;;;;;;;7.20;4.10;;;19.80;61.50;;;;;;4175618;28;20056;-60
2023/06/06 01:32:22;;;;;;;6.20;3.78;;;19.80;62.50;;;;;;4174552;28;20052;-61
2023/06/06 01:35:10;;;;;;;4.88;3.55;;;19.80;61.60;;;;;;4191441;28;20051;-61
2023/06/06 01:37:57;;;;;;;7.18;4.05;;;19.80;61.90;;;;;;4194113;28;20118;-61
2023/06/06 01:40:40;;;;;;;5.63;3.50;;;19.70;61.90;;;;;;4194225;28;20115;-61
2023/06/06 01:43:25;;;;;;;6.93;3.40;;;19.70;61.90;;;;;;4177394;28;20052;-61
2023/06/06 01:46:09;;;;;;;5.00;3.55;;;19.70;62.10;;;;;;4177377;28;20146;-61
2023/06/06 01:48:53;;;;;;;5.43;3.85;;;19.70;62.10;;;;;;4207577;28;20043;-60
2023/06/06 01:51:34;;;;;;;6.97;3.78;;;19.70;62.10;;;;;;4211446;28;20055;-62
2023/06/06 01:54:15;;;;;;;9.82;4.47;;;19.70;62.00;;;;;;4199689;28;20074;-61
2023/06/06 01:56:59;;;;;;;6.63;4.03;;;19.70;61.90;;;;;;4210499;28;20051;-61
2023/06/06 01:59:41;;;;;;;5.55;3.92;;;19.60;62.00;;;;;;4210091;28;20058;-63
2023/06/06 02:02:22;;;;;;;5.10;3.90;;;19.60;62.20;;;;;;4204807;28;20051;-61
2023/06/06 02:05:04;;;;;;;7.43;3.90;;;19.60;62.30;;;;;;4197690;28;20071;-61
2023/06/06 02:07:45;;;;;;;6.22;3.53;;;19.60;62.60;;;;;;4193536;28;20055;-61
2023/06/06 02:10:25;;;;;;;7.20;3.58;;;19.60;62.80;;;;;;4193594;28;20060;-61
2023/06/06 02:13:08;;;;;;;7.85;4.70;;;19.60;62.80;;;;;;4194538;28;20498;-61
2023/06/06 02:15:49;;;;;;;7.03;4.35;;;19.60;63.60;;;;;;4193554;28;20514;-61
2023/06/06 02:18:31;;;;;;;7.78;4.18;;;19.60;62.70;;;;;;4194475;28;20059;-61
2023/06/06 02:21:13;;;;;;;;;;;19.60;62.70;;;;;;4194724;28;20105;-61
2023/06/06 02:23:54;;;;;;;5.15;4.65;;;19.60;62.80;;;;;;4177043;28;19935;-61
2023/06/06 02:26:35;;;;;;;;;;;19.50;63.20;;;;;;4178206;28;20056;-62
2023/06/06 02:29:17;;;;;;;6.47;4.67;;;19.50;63.30;;;;;;4177083;28;20027;-61
2023/06/06 02:31:58;;;;;;;7.70;5.45;;;19.50;63.50;;;;;;4193592;28;20820;-62
2023/06/06 02:34:39;;;;;;;9.52;4.95;;;19.50;63.20;;;;;;4194258;28;20051;-61
2023/06/06 02:37:21;;;;;;;6.82;4.97;;;19.50;63.20;;;;;;4194461;28;20055;-61
2023/06/06 02:40:08;;;;;;;6.95;5.82;;;19.50;63.20;;;;;;4194145;28;20478;-61
2023/06/06 02:42:49;;;;;;;6.47;4.88;;;19.50;63.30;;;;;;4188548;28;20047;-61
2023/06/06 02:45:32;;;;;;;8.35;5.80;;;19.50;63.20;;;;;;4192942;28;20055;-61
2023/06/06 02:48:13;;;;;;;8.27;5.00;;;19.50;63.20;;;;;;4196225;28;20544;-63
2023/06/06 02:50:54;;;;;;;7.50;5.07;;;19.50;63.30;;;;;;4198787;28;20048;-61
2023/06/06 02:53:35;;;;;;;7.13;4.68;;;19.50;63.20;;;;;;4192918;28;20051;-61
2023/06/06 02:56:16;;;;;;;9.98;5.25;;;19.50;63.20;;;;;;4193046;28;20498;-61
2023/06/06 02:58:57;;;;;;;7.85;4.68;;;19.50;63.30;;;;;;4176514;28;20514;-63
2023/06/06 03:01:42;;;;;;;7.55;4.75;;;19.50;63.20;;;;;;4181871;28;20071;-63
2023/06/06 03:04:25;;;;;;;7.15;4.57;;;19.50;63.20;;;;;;4192770;28;20412;-65
2023/06/06 03:07:10;;;;;;;7.18;4.97;;;19.50;63.30;;;;;;4195766;28;20500;-64
2023/06/06 03:09:51;;;;;;;6.93;4.68;;;19.50;63.30;;;;;;4209118;28;20387;-65
2023/06/06 03:12:36;;;;;;;7.30;4.65;;;19.40;63.20;;;;;;4195718;28;20052;-64
2023/06/06 03:15:18;;;;;;;9.15;4.95;;;19.40;64.10;;;;;;4190688;28;20051;-63
2023/06/06 03:18:05;;;;;;;9.95;5.07;;;19.40;63.20;;;;;;4192154;28;20504;-63
2023/06/06 03:20:48;;;;;;;10.05;5.10;;;19.40;63.20;;;;;;4193319;28;20174;-63
2023/06/06 03:23:30;;;;;;;7.82;4.70;;;19.40;63.20;;;;;;4175589;28;20055;-63
2023/06/06 03:26:12;;;;;;;8.60;5.32;;;19.40;63.20;;;;;;4193902;28;20120;-64
2023/06/06 03:28:53;;;;;;;8.75;5.30;;;19.40;63.20;;;;;;4209111;28;20059;-63
2023/06/06 03:31:35;;;;;;;6.03;4.50;;;19.40;63.20;;;;;;4202358;28;20527;-64
2023/06/06 03:34:18;;;;;;;8.35;4.50;;;19.40;63.30;;;;;;4193433;28;20185;-63
2023/06/06 03:37:00;;;;;;;7.57;4.72;;;19.30;63.30;;;;;;4192515;28;20055;-63
2023/06/06 03:39:42;;;;;;;8.13;4.57;;;19.30;63.10;;;;;;4193125;28;20055;-63
2023/06/06 03:42:23;;;;;;;6.25;4.65;;;19.30;63.10;;;;;;4191843;28;20514;-63
2023/06/06 03:45:06;;;;;;;7.85;4.30;;;19.30;63.20;;;;;;4193032;28;20403;-63
2023/06/06 03:47:47;;;;;;;8.98;5.10;;;19.30;63.10;;;;;;4176869;28;20052;-63
2023/06/06 03:50:30;;;;;;;7.72;4.40;;;19.30;63.10;;;;;;4175288;28;20048;-63
2023/06/06 03:53:10;;;;;;;5.90;5.15;;;19.30;63.30;;;;;;4176459;28;20067;-63
2023/06/06 03:55:51;;;;;;;6.25;4.63;;;19.30;63.50;;;;;;4184724;28;20059;-62
2023/06/06 03:58:32;;;;;;;8.25;4.57;;;19.30;63.50;;;;;;4192550;28;20407;-61
2023/06/06 04:01:14;;;;;;;5.25;3.97;;;19.30;63.60;;;;;;4191441;28;20071;-61
2023/06/06 04:03:55;;;;;;;8.13;4.43;;;19.30;63.60;;;;;;4191287;28;20077;-61
2023/06/06 04:06:37;;;;;;;6.90;4.18;;;19.30;63.60;;;;;;4202821;28;20108;-63
2023/06/06 04:09:20;;;;;;;8.93;4.85;;;19.30;63.60;;;;;;4208330;28;20124;-61
2023/06/06 04:12:02;;;;;;;;;;;19.30;63.20;;;;;;4192785;28;20495;-60
2023/06/06 04:14:43;;;;;;;10.23;4.60;;;19.30;63.20;;;;;;4188050;28;19957;-59
2023/06/06 04:17:25;;;;;;;5.45;3.92;;;19.30;63.70;;;;;;4193621;28;20051;-61
2023/06/06 04:20:08;;;;;;;9.80;4.00;;;19.30;63.30;;;;;;4185803;28;20502;-59
2023/06/06 04:22:50;;;;;;;6.47;4.03;;;19.30;63.20;;;;;;4184649;28;20051;-59
2023/06/06 04:25:31;;;;;;;8.68;4.15;;;19.30;63.10;;;;;;4193540;28;20050;-59
2023/06/06 04:28:19;;;;;;;7.18;4.75;;;19.30;63.10;;;;;;4174775;28;20652;-60
2023/06/06 04:31:01;;;;;;;9.35;4.95;;;19.20;63.40;;;;;;4168009;28;20073;-60
2023/06/06 04:33:44;;;;;;;8.00;4.47;;;19.20;63.20;;;;;;4174491;28;20071;-61
2023/06/06 04:36:25;;;;;;;7.55;4.55;;;19.20;63.20;;;;;;4189496;28;20110;-60
2023/06/06 04:39:09;;;;;;;;;;;19.20;63.40;;;;;;4185107;28;20047;-60
2023/06/06 04:41:50;;;;;;;5.63;4.10;;;19.20;63.50;;;;;;4176183;28;19927;-60
2023/06/06 04:44:33;;;;;;;11.13;4.35;;;19.20;63.80;;;;;;4190289;28;20062;-60
2023/06/06 04:47:19;;;;;;;8.70;4.47;;;19.20;64.60;;;;;;4192401;28;20050;-61
2023/06/06 04:50:00;;;;;;;9.35;4.55;;;19.20;63.70;;;;;;4191110;28;20058;-60
2023/06/06 04:52:42;;;;;;;7.63;5.20;;;19.20;63.70;;;;;;4190591;28;20104;-61
2023/06/06 04:55:24;;;;;;;8.27;4.90;;;19.20;63.70;;;;;;4175841;28;20419;-62
2023/06/06 04:58:05;;;;;;;11.27;5.15;;;19.20;63.80;;;;;;4175569;28;20178;-62
2023/06/06 05:00:46;;;;;;;12.90;4.63;;;19.20;63.80;;;;;;4186239;28;20044;-62
2023/06/06 05:03:27;;;;;;;6.85;4.25;;;19.20;64.00;;;;;;4190494;28;20114;-62
2023/06/06 05:06:09;;;;;;;6.68;4.20;;;19.30;64.20;;;;;;4175962;28;20047;-61
2023/06/06 05:08:50;;;;;;;8.25;4.47;;;19.30;64.30;;;;;;4198494;28;20059;-61
2023/06/06 05:11:32;;;;;;;8.63;4.45;;;19.30;64.40;;;;;;4195754;28;20068;-61
2023/06/06 05:14:13;;;;;;;7.60;4.18;;;19.30;64.40;;;;;;4178802;28;20056;-61
2023/06/06 05:16:57;;;;;;;7.85;4.03;;;19.30;64.40;;;;;;4184217;28;20067;-61
2023/06/06 05:19:38;;;;;;;7.05;3.78;;;19.30;64.40;;;;;;4178896;28;20492;-63
2023/06/06 05:22:19;;;;;;;8.68;4.05;;;19.40;64.50;;;;;;4192590;28;20040;-60
2023/06/06 05:25:00;;;;;;;6.90;4.32;;;19.40;64.70;;;;;;4197589;28;20166;-60
2023/06/06 05:27:42;;;;;;;7.45;4.25;;;19.50;64.60;;;;;;4194767;28;20197;-60
2023/06/06 05:30:23;;;;;;;7.85;4.03;;;19.60;64.30;;;;;;4195110;28;20051;-59
2023/06/06 05:33:04;;;;;;;9.00;3.42;;;19.70;63.90;;;;;;4195191;28;20178;-60
2023/06/06 05:35:47;;;;;;;5.28;3.38;;;19.70;63.50;;;;;;4195284;28;20052;-59
2023/06/06 05:38:27;;;;;;;6.88;3.42;;;19.70;63.40;;;;;;4205074;28;20055;-60
2023/06/06 05:41:09;;;;;;;9.02;3.75;;;19.70;64.20;;;;;;4195262;28;20428;-59
2023/06/06 05:43:51;;;;;;;6.03;2.90;;;19.80;62.90;;;;;;4195324;28;20402;-59
2023/06/06 05:46:33;;;;;;;7.22;3.28;;;19.80;63.40;;;;;;4194187;28;20391;-59
2023/06/06 05:49:14;;;;;;;7.70;3.35;;;19.80;62.40;;;;;;4195352;28;20051;-58
2023/06/06 05:51:55;;;;;;;5.63;3.33;;;19.80;62.30;;;;;;4203994;28;20047;-60
2023/06/06 05:54:36;;;;;;;8.60;3.17;;;19.80;62.40;;;;;;4211728;28;20047;-59
2023/06/06 05:57:30;;;;;;;5.38;3.00;;;19.80;62.50;;;;;;4210167;28;20062;-58
2023/06/06 06:00:13;;;;;;;;;;;19.80;62.50;;;;;;4212186;28;20059;-58
2023/06/06 06:02:56;;;;;;;5.70;2.78;;;19.70;62.60;;;;;;4194825;28;19931;-59
2023/06/06 06:05:37;;;;;;;5.22;3.40;;;19.70;62.60;;;;;;4193727;28;20051;-59
2023/06/06 06:08:18;;;;;;;3.95;2.70;;;19.70;62.80;;;;;;4194926;28;20057;-60
2023/06/06 06:10:59;;;;;;;8.30;3.45;;;19.70;62.80;;;;;;4197826;28;20055;-58
2023/06/06 06:13:40;;;;;;;10.27;3.50;;;19.80;62.90;;;;;;4211321;28;20086;-59
2023/06/06 06:16:23;;;;;;;5.28;3.05;;;19.70;62.90;;;;;;4211303;28;20043;-58
2023/06/06 06:19:05;;;;;;;7.18;3.78;;;19.80;63.00;;;;;;4210835;28;20449;-58
2023/06/06 06:21:46;;;;;;;9.65;3.72;;;19.80;62.80;;;;;;4210976;28;21668;-58
2023/06/06 06:24:30;;;;;;;6.90;3.55;;;19.90;62.50;;;;;;4211218;28;20063;-59
2023/06/06 06:27:11;;;;;;;7.57;3.42;;;19.90;62.40;;;;;;4211329;28;20055;-59
2023/06/06 06:29:52;;;;;;;6.57;3.55;;;19.90;62.30;;;;;;4210981;28;20390;-59
2023/06/06 06:32:37;;;;;;;7.60;3.78;;;19.90;62.30;;;;;;4211283;28;20059;-59
2023/06/06 06:35:20;;;;;;;5.43;3.70;;;20.00;62.40;;;;;;4201383;28;20063;-58
2023/06/06 06:38:00;;;;;;;8.82;3.85;;;20.00;62.50;;;;;;4193041;28;20106;-59
2023/06/06 06:40:41;;;;;;;7.57;3.38;;;20.00;62.30;;;;;;4208158;28;20055;-58
2023/06/06 06:43:22;;;;;;;7.75;3.10;;;20.10;62.30;;;;;;4211055;28;20058;-59
2023/06/06 06:46:15;;;;;;;11.13;3.33;;;20.10;62.10;;;;;;4207457;28;20059;-59
2023/06/06 06:48:57;;;;;;;6.38;2.67;;;20.20;62.10;;;;;;4193912;28;20052;-59
2023/06/06 06:51:40;;;;;;;10.13;3.20;;;20.10;62.10;;;;;;4195103;28;20067;-58
2023/06/06 06:54:24;;;;;;;5.15;2.97;;;20.20;62.10;;;;;;4193911;28;20375;-59
2023/06/06 06:57:05;;;;;;;4.38;2.92;;;20.20;61.70;;;;;;4196105;28;20062;-59
2023/06/06 06:59:46;;;;;;;9.70;4.35;;;20.30;61.70;;;;;;4209729;28;20055;-59
2023/06/06 07:02:28;;;;;;;4.97;3.00;;;20.40;61.60;;;;;;4210499;28;20071;-59
2023/06/06 07:05:15;;;;;;;8.02;3.30;;;20.40;61.40;;;;;;4196707;28;20183;-59
2023/06/06 07:07:56;;;;;;;10.38;3.63;;;20.40;61.30;;;;;;4194027;28;20050;-59
2023/06/06 07:10:36;;;;;;;8.38;4.28;;;20.50;61.10;;;;;;4193660;28;20056;-59
2023/06/06 07:13:18;;;;;;;9.10;3.90;;;20.50;61.00;;;;;;4183393;28;20086;-59
2023/06/06 07:15:59;;;;;;;5.35;3.25;;;20.50;60.90;;;;;;4177288;28;20056;-60
2023/06/06 07:18:40;;;;;;;5.55;3.20;;;20.60;60.80;;;;;;4176910;28;20059;-59
2023/06/06 07:21:22;;;;;;;5.60;3.28;;;20.60;60.60;;;;;;4175818;28;20160;-58
2023/06/06 07:24:03;;;;;;;5.53;3.10;;;20.60;60.50;;;;;;4207931;28;20117;-59
2023/06/06 07:26:45;;;;;;;4.90;3.20;;;20.60;60.50;;;;;;4210272;28;20062;-58
2023/06/06 07:29:26;;;;;;;;;;;20.60;60.30;;;;;;4210572;28;20058;-59
2023/06/06 07:32:08;;;;;;;10.20;3.45;;;20.70;60.40;;;;;;4210284;28;19973;-60
2023/06/06 07:34:49;;;;;;;7.65;3.40;;;20.60;60.20;;;;;;4176905;28;20055;-60
2023/06/06 07:37:31;;;;;;;6.55;3.60;;;20.70;60.40;;;;;;4178467;28;20392;-60
2023/06/06 07:40:14;;;;;;;6.00;4.00;;;20.60;60.50;;;;;;4193345;28;20055;-60
2023/06/06 07:42:57;;;;;;;7.72;3.65;;;20.60;60.50;;;;;;4193287;28;20175;-60
2023/06/06 07:45:38;;;;;;;10.75;3.90;;;20.60;60.10;;;;;;4193181;28;20406;-60
2023/06/06 07:48:19;;;;;;;6.75;3.55;;;20.60;60.30;;;;;;4192932;28;20186;-60
2023/06/06 07:51:01;;;;;;;7.05;3.42;;;20.60;60.30;;;;;;4192925;28;20075;-59
2023/06/06 07:53:44;;;;;;;9.60;3.95;;;20.60;60.70;;;;;;4207193;28;20055;-59
2023/06/06 07:56:27;;;;;;;6.07;3.85;;;20.60;61.00;;;;;;4209965;28;20097;-58
2023/06/06 07:59:09;;;;;;;6.45;3.83;;;20.60;60.90;;;;;;4193096;28;20105;-58
2023/06/06 08:01:50;;;;;;;6.60;3.75;;;20.60;60.60;;;;;;4193818;28;20052;-58
2023/06/06 08:04:31;;;;;;;9.15;3.35;;;20.50;60.80;;;;;;4209834;28;20593;-58
2023/06/06 08:07:13;;;;;;;;;;;20.50;60.80;;;;;;4209041;28;20076;-58
2023/06/06 08:09:55;;;;;;;6.00;3.47;;;20.50;60.60;;;;;;4176618;28;19932;-60
2023/06/06 08:12:37;;;;;;;5.15;3.80;;;20.50;60.70;;;;;;4184262;28;20126;-60
2023/06/06 08:15:18;;;;;;;4.53;3.33;;;20.50;60.70;;;;;;4209215;28;20055;-62
2023/06/06 08:17:59;;;;;;;5.07;3.33;;;20.50;60.60;;;;;;4203278;28;20051;-62
2023/06/06 08:20:40;;;;;;;4.53;3.35;;;20.50;61.80;;;;;;4190851;28;20086;-61
2023/06/06 08:23:23;;;;;;;8.68;4.35;;;20.50;61.90;;;;;;4192635;28;20059;-61
2023/06/06 08:26:05;;;;;;;6.20;4.28;;;20.50;61.00;;;;;;4192593;28;20051;-61
2023/06/06 08:28:46;;;;;;;7.07;4.25;;;20.50;61.20;;;;;;4192478;28;20403;-61
2023/06/06 08:31:29;;;;;;;7.60;4.22;;;20.50;61.20;;;;;;4197116;28;20059;-61
2023/06/06 08:34:10;;;;;;;8.80;4.22;;;20.50;61.00;;;;;;4209441;28;20047;-61
2023/06/06 08:36:51;;;;;;;8.82;4.57;;;20.50;60.90;;;;;;4208013;28;20043;-61
2023/06/06 08:39:31;;;;;;;6.93;4.13;;;20.50;61.10;;;;;;4193501;28;20067;-61
2023/06/06 08:42:18;;;;;;;5.88;4.78;;;20.50;61.90;;;;;;4192150;28;20125;-60
2023/06/06 08:45:01;;;;;;;6.93;4.82;;;20.50;61.00;;;;;;4192244;28;20174;-61
2023/06/06 08:47:43;;;;;;;6.30;4.20;;;20.50;61.00;;;;;;4191806;28;20197;-60
2023/06/06 08:50:26;;;;;;;7.43;4.28;;;20.60;60.90;;;;;;4203324;28;20059;-61
2023/06/06 08:53:08;;;;;;;4.80;4.18;;;20.60;60.70;;;;;;4196285;28;20098;-61
2023/06/06 08:55:50;;;;;;;6.63;4.60;;;20.60;60.80;;;;;;4192598;28;20411;-60
2023/06/06 08:58:33;;;;;;;5.30;3.67;;;20.60;60.60;;;;;;4194532;28;20055;-60
2023/06/06 09:01:14;;;;;;;9.00;4.55;;;20.60;60.50;;;;;;4189645;28;20625;-61
2023/06/06 09:03:57;;;;;;;4.72;3.97;;;20.60;60.50;;;;;;4189464;28;20518;-60
2023/06/06 09:06:44;;;;;;;11.25;5.43;;;20.70;60.40;;;;;;4188321;28;20056;-61
2023/06/06 09:09:26;;;;;;;6.63;4.05;;;20.70;60.60;;;;;;4180004;28;20056;-61
2023/06/06 09:12:08;;;;;;;6.05;4.15;;;20.70;60.50;;;;;;4189486;28;20059;-60
2023/06/06 09:14:50;;;;;;;4.47;3.85;;;20.70;60.30;;;;;;4189235;28;20407;-60
2023/06/06 09:17:36;;;;;;;7.22;4.22;;;20.70;60.30;;;;;;4184752;28;20150;-61
2023/06/06 09:20:18;;;;;;;7.85;4.85;;;20.70;60.30;;;;;;4179898;28;20055;-61
2023/06/06 09:23:00;;;;;;;7.20;4.03;;;20.70;60.20;;;;;;4188814;28;20055;-61
2023/06/06 09:25:45;;;;;;;5.78;4.57;;;20.80;60.30;;;;;;4173363;28;20399;-61
2023/06/06 09:28:36;;;;;;;6.63;4.20;;;20.80;60.60;;;;;;4183385;28;20051;-60
2023/06/06 09:31:26;;;;;;;;;;;20.80;60.40;;;;;;4182479;28;20178;-61
2023/06/06 09:34:09;;;;;;;8.55;4.28;;;20.80;60.20;;;;;;4176435;28;19931;-61
2023/06/06 09:36:52;;;;;;;8.35;4.50;;;20.80;60.00;;;;;;4188006;28;20159;-61
2023/06/06 09:39:34;;;;;;;5.43;4.20;;;20.80;60.20;;;;;;4173455;28;20577;-61
2023/06/06 09:42:15;;;;;;;6.88;4.60;;;20.80;59.90;;;;;;4173118;28;20610;-61
2023/06/06 09:44:56;;;;;;;5.93;4.10;;;20.80;60.00;;;;;;4183089;28;20850;-61
2023/06/06 09:47:41;;;;;;;6.50;4.63;;;20.80;60.00;;;;;;4189230;28;20051;-61
2023/06/06 09:50:22;;;;;;;6.50;4.88;;;20.80;61.00;;;;;;4175215;28;20048;-61
2023/06/06 09:53:06;;;;;;;7.57;5.00;;;20.80;60.30;;;;;;4172187;28;20059;-62
2023/06/06 09:55:48;;;;;;;7.25;5.00;;;20.90;59.90;;;;;;4177555;28;20047;-61
2023/06/06 09:58:30;;;;;;;;;;;20.90;60.00;;;;;;4188108;28;20052;-61
2023/06/06 10:01:12;;;;;;;10.10;5.20;;;20.90;60.00;;;;;;4181503;28;19932;-60
2023/06/06 10:03:57;;;;;;;8.40;5.28;;;20.90;60.00;;;;;;4187968;28;20067;-61
2023/06/06 10:06:43;;;;;;;6.50;5.00;;;20.90;60.90;;;;;;4180950;28;20050;-61
2023/06/06 10:09:24;;;;;;;5.60;4.78;;;20.90;59.90;;;;;;4190650;28;20083;-60
2023/06/06 10:12:05;;;;;;;;;;;20.90;59.70;;;;;;4176823;28;20044;-60
2023/06/06 10:14:48;;;;;;;6.82;5.25;;;20.90;59.70;;;;;;4176771;28;20539;-60
2023/06/06 10:17:31;;;;;;;7.93;5.45;;;21.00;59.90;;;;;;4191526;28;20121;-61
2023/06/06 10:20:14;;;;;;;9.27;5.13;;;20.90;59.70;;;;;;4187440;28;20044;-61
2023/06/06 10:22:56;;;;;;;8.90;5.35;;;20.90;59.80;;;;;;4178324;28;20155;-60
2023/06/06 10:25:37;;;;;;;9.60;5.68;;;20.90;59.90;;;;;;4191748;28;20143;-60
2023/06/06 10:28:22;;;;;;;7.75;5.18;;;21.00;60.00;;;;;;4191640;28;20490;-60
2023/06/06 10:31:07;;;;;;;8.27;5.22;;;21.00;59.80;;;;;;4180142;28;20056;-60
2023/06/06 10:33:54;;;;;;;9.63;5.13;;;21.00;59.70;;;;;;4177090;28;20191;-60
2023/06/06 10:36:43;;;;;;;8.13;5.90;;;21.00;59.70;;;;;;4176707;28;20068;-61
2023/06/06 10:39:25;;;;;;;8.90;4.25;;;21.00;59.60;;;;;;4182199;28;20055;-61
2023/06/06 10:42:08;;;;;;;6.18;4.97;;;21.00;59.60;;;;;;4180813;28;20060;-61
2023/06/06 10:44:56;;;;;;;6.60;4.38;;;21.00;59.50;;;;;;4181648;28;20056;-61
2023/06/06 10:47:41;;;;;;;8.88;5.03;;;21.00;59.50;;;;;;4186340;28;20107;-60
2023/06/06 10:50:23;;;;;;;6.80;4.45;;;21.00;59.60;;;;;;4180085;28;20130;-61
2023/06/06 10:53:17;;;;;;;9.88;4.63;;;21.10;59.70;;;;;;4175188;28;20048;-60
2023/06/06 10:55:58;;;;;;;10.18;5.10;;;21.10;59.70;;;;;;4178457;28;20058;-60
2023/06/06 10:58:40;;;;;;;12.75;4.80;;;21.10;59.70;;;;;;4190906;28;20063;-60
2023/06/06 11:01:26;;;;;;;8.13;4.63;;;21.10;59.70;;;;;;4190832;28;20059;-60
2023/06/06 11:04:17;;;;;;;8.77;4.90;;;21.10;59.70;;;;;;4179574;28;20060;-61
2023/06/06 11:07:01;;;;;;;6.95;4.40;;;21.10;59.60;;;;;;4176257;28;20925;-61
2023/06/06 11:09:48;;;;;;;8.45;4.88;;;21.10;59.60;;;;;;4176777;28;20653;-60
2023/06/06 11:12:30;;;;;;;6.75;4.13;;;21.10;59.60;;;;;;4173823;28;20072;-60
2023/06/06 11:15:11;;;;;;;6.45;4.22;;;21.10;59.60;;;;;;4174996;28;20496;-61
2023/06/06 11:18:00;;;;;;;7.78;4.68;;;21.20;59.40;;;;;;4179328;28;20083;-60
2023/06/06 11:20:44;;;;;;;27.48;5.38;;;21.20;59.20;;;;;;4176009;28;20511;-61
2023/06/06 11:23:39;;;;;;;8.00;4.03;;;21.20;59.60;;;;;;4182882;28;20055;-58
2023/06/06 11:26:22;;;;;;;9.77;4.45;;;21.20;59.60;;;;;;4193048;28;20493;-57
2023/06/06 11:29:04;;;;;;;6.55;4.47;;;21.20;59.70;;;;;;4193941;28;20063;-58
2023/06/06 11:31:47;;;;;;;7.43;4.47;;;21.30;59.50;;;;;;4195759;28;20388;-58
2023/06/06 11:34:28;;;;;;;9.20;4.60;;;21.20;59.50;;;;;;4195411;28;20526;-58
2023/06/06 11:37:10;;;;;;;6.70;4.38;;;21.30;59.50;;;;;;4191687;28;20095;-58
2023/06/06 11:39:51;;;;;;;6.95;4.13;;;21.30;59.30;;;;;;4193342;28;20047;-58
2023/06/06 11:42:33;;;;;;;7.53;4.60;;;21.30;59.90;;;;;;4204253;28;20059;-58
2023/06/06 11:45:14;;;;;;;6.43;4.15;;;21.30;59.20;;;;;;4175506;28;20127;-58
2023/06/06 11:47:55;;;;;;;;;;;21.30;59.10;;;;;;4177346;28;20491;-58
2023/06/06 11:50:53;;;;;;;10.93;4.38;;;21.30;59.60;;;;;;4177949;28;19994;-58
2023/06/06 11:53:34;;;;;;;6.10;4.65;;;21.30;59.00;;;;;;4197656;28;20399;-58
2023/06/06 11:56:16;;;;;;;7.90;3.92;;;21.30;59.10;;;;;;4192909;28;20118;-58
2023/06/06 11:58:58;;;;;;;10.40;4.30;;;21.30;59.10;;;;;;4192855;28;20618;-58
2023/06/06 12:01:49;;;;;;;7.18;4.13;;;21.30;59.00;;;;;;4199118;28;20055;-58
2023/06/06 12:04:30;;;;;;;5.22;4.43;;;21.30;58.90;;;;;;4175733;28;20099;-58
2023/06/06 12:07:11;;;;;;;8.30;4.63;;;21.30;58.90;;;;;;4175921;28;20118;-58
2023/06/06 12:09:58;;;;;;;7.28;4.18;;;21.30;59.00;;;;;;4175969;28;20051;-58
2023/06/06 12:12:45;;;;;;;5.45;4.07;;;21.40;59.10;;;;;;4178442;28;20656;-58
2023/06/06 12:15:45;;;;;;;8.35;4.15;;;21.40;58.90;;;;;;4192611;28;20507;-58
2023/06/06 12:18:26;;;;;;;8.23;4.65;;;21.40;58.90;;;;;;4192438;28;20519;-58
2023/06/06 12:21:07;;;;;;;7.65;4.45;;;21.40;59.00;;;;;;4192488;28;20063;-58
2023/06/06 12:23:49;;;;;;;11.13;4.78;;;21.40;59.00;;;;;;4192390;28;20055;-58
2023/06/06 12:26:45;;;;;;;11.90;4.65;;;21.40;58.90;;;;;;4192714;28;20130;-52
2023/06/06 12:29:30;;;;;;;10.95;4.40;;;21.40;58.90;;;;;;4192214;28;20071;-55
2023/06/06 12:32:19;;;;;;;6.30;4.68;;;21.50;59.00;;;;;;4191890;28;20117;-53
2023/06/06 12:35:03;;;;;;;6.40;4.63;;;21.50;59.00;;;;;;4192733;28;21550;-55
2023/06/06 12:37:46;;;;;;;5.05;3.95;;;21.50;59.00;;;;;;4192474;28;20063;-54
2023/06/06 12:40:33;;;;;;;10.20;4.72;;;21.50;58.90;;;;;;4192139;28;20059;-50
2023/06/06 12:43:15;;;;;;;8.38;4.60;;;21.50;58.90;;;;;;4192159;28;20060;-53
2023/06/06 12:45:56;;;;;;;7.65;4.47;;;21.50;59.00;;;;;;4192216;28;20056;-54
2023/06/06 12:48:38;;;;;;;9.20;4.75;;;21.50;59.00;;;;;;4192542;28;20631;-55
2023/06/06 12:51:19;;;;;;;8.02;4.57;;;21.60;58.90;;;;;;4192159;28;20097;-54
2023/06/06 12:54:00;;;;;;;7.22;4.70;;;21.60;59.50;;;;;;4192528;28;20055;-54
2023/06/06 12:56:41;;;;;;;13.10;4.85;;;21.60;58.80;;;;;;4192219;28;20522;-55
2023/06/06 12:59:26;;;;;;;6.80;4.68;;;21.60;58.90;;;;;;4192377;28;20044;-58
2023/06/06 13:02:08;;;;;;;6.38;4.63;;;21.60;58.80;;;;;;4192000;28;20059;-58
2023/06/06 13:04:51;;;;;;;7.38;4.43;;;21.60;58.60;;;;;;4191900;28;20104;-58
2023/06/06 13:07:32;;;;;;;8.90;4.72;;;21.60;58.70;;;;;;4175002;28;20048;-56
2023/06/06 13:10:13;;;;;;;8.35;4.78;;;21.70;58.90;;;;;;4183591;28;20109;-59
2023/06/06 13:12:54;;;;;;;7.82;4.80;;;21.70;58.90;;;;;;4189682;28;20055;-58
2023/06/06 13:15:35;;;;;;;10.75;4.70;;;21.70;58.90;;;;;;4191987;28;20441;-58
2023/06/06 13:18:16;;;;;;;10.38;4.32;;;21.70;58.90;;;;;;4190712;28;20692;-58
2023/06/06 13:21:01;;;;;;;8.68;4.47;;;21.70;58.90;;;;;;4192227;28;20102;-57
2023/06/06 13:23:44;;;;;;;7.40;4.20;;;21.70;58.60;;;;;;4192016;28;20063;-57
2023/06/06 13:26:26;;;;;;;12.23;4.45;;;21.70;58.50;;;;;;4192280;28;20403;-57
2023/06/06 13:29:07;;;;;;;5.97;3.67;;;21.70;58.40;;;;;;4191983;28;20059;-56
2023/06/06 13:31:48;;;;;;;6.90;4.28;;;21.70;58.60;;;;;;4192420;28;20431;-57
2023/06/06 13:34:29;;;;;;;7.28;4.57;;;21.70;58.60;;;;;;4195470;28;20829;-57
2023/06/06 13:37:11;;;;;;;;;;;21.80;58.80;;;;;;4195703;28;20048;-57
2023/06/06 13:39:52;;;;;;;11.75;4.70;;;21.80;58.70;;;;;;4193607;28;19931;-58
2023/06/06 13:42:33;;;;;;;6.55;3.80;;;21.80;58.70;;;;;;4195019;28;20070;-58
2023/06/06 13:45:14;;;;;;;8.38;4.78;;;21.80;58.60;;;;;;4178533;28;20056;-57
2023/06/06 13:47:55;;;;;;;9.63;3.92;;;21.80;58.70;;;;;;4182124;28;20507;-56
2023/06/06 13:50:36;;;;;;;8.95;4.55;;;21.80;58.50;;;;;;4178523;28;20094;-56
2023/06/06 13:53:20;;;;;;;11.70;4.32;;;21.80;58.50;;;;;;4179704;28;20110;-57
2023/06/06 13:56:03;;;;;;;8.73;4.10;;;21.80;58.40;;;;;;4209941;28;20051;-58
2023/06/06 13:58:53;;;;;;;9.25;4.32;;;21.80;58.50;;;;;;4198572;28;20121;-59
2023/06/06 14:01:34;;;;;;;4.90;4.20;;;21.80;58.20;;;;;;4177438;28;20048;-56
2023/06/06 14:04:18;;;;;;;7.15;4.40;;;21.80;58.30;;;;;;4201683;28;20055;-57
2023/06/06 14:06:58;;;;;;;8.05;4.20;;;21.90;58.30;;;;;;4211315;28;20100;-57